sensor_id;sensor_type;location;lat;lon;timestamp;pressure;altitude;pressure_sealevel;temperature;humidity
68197;BME280;55019;49.382;11.358;2023-07-28T00:02:08;95999.56;;;15.30;100.00
68197;BME280;55019;49.382;11.358;2023-07-28T00:04:34;96000.31;;;15.37;100.00
68197;BME280;55019;49.382;11.358;2023-07-28T00:07:04;95999.72;;;15.35;100.00
68197;BME280;55019;49.382;11.358;2023-07-28T00:09:30;95997.53;;;15.32;100.00
68197;BME280;55019;49.382;11.358;2023-07-28T00:11:59;96005.94;;;15.28;100.00
68197;BME280;55019;49.382;11.358;2023-07-28T00:14:26;95991.97;;;15.16;100.00
68197;BME280;55019;49.382;11.358;2023-07-28T00:16:52;96003.53;;;15.26;100.00
68197;BME280;55019;49.382;11.358;2023-07-28T00:19:19;96000.94;;;15.26;100.00
68197;BME280;55019;49.382;11.358;2023-07-28T00:21:47;95994.72;;;15.27;100.00
68197;BME280;55019;49.382;11.358;2023-07-28T00:24:13;95998.53;;;15.25;100.00
68197;BME280;55019;49.382;11.358;2023-07-28T00:26:39;95991.16;;;15.28;100.00
68197;BME280;55019;49.382;11.358;2023-07-28T00:29:05;95992.75;;;15.29;100.00
68197;BME280;55019;49.382;11.358;2023-07-28T00:31:32;95992.25;;;15.52;100.00
68197;BME280;55019;49.382;11.358;2023-07-28T00:33:58;95980.69;;;15.41;100.00
68197;BME280;55019;49.382;11.358;2023-07-28T00:36:23;95983.03;;;15.49;100.00
68197;BME280;55019;49.382;11.358;2023-07-28T00:38:51;95985.69;;;15.43;100.00
68197;BME280;55019;49.382;11.358;2023-07-28T00:41:17;95979.84;;;15.47;100.00
68197;BME280;55019;49.382;11.358;2023-07-28T00:43:43;95977.06;;;15.49;100.00
68197;BME280;55019;49.382;11.358;2023-07-28T00:46:10;95962.97;;;15.56;100.00
68197;BME280;55019;49.382;11.358;2023-07-28T00:48:36;95954.88;;;15.77;100.00
68197;BME280;55019;49.382;11.358;2023-07-28T00:51:03;95954.28;;;15.75;100.00
68197;BME280;55019;49.382;11.358;2023-07-28T00:53:29;95952.88;;;15.73;100.00
68197;BME280;55019;49.382;11.358;2023-07-28T00:55:55;95966.97;;;15.65;100.00
68197;BME280;55019;49.382;11.358;2023-07-28T00:58:21;95967.38;;;15.62;100.00
68197;BME280;55019;49.382;11.358;2023-07-28T01:00:47;95980.16;;;15.70;100.00
68197;BME280;55019;49.382;11.358;2023-07-28T01:03:18;95981.00;;;15.64;100.00
68197;BME280;55019;49.382;11.358;2023-07-28T01:05:54;95977.06;;;15.49;100.00
68197;BME280;55019;49.382;11.358;2023-07-28T01:08:32;95977.25;;;15.47;100.00
68197;BME280;55019;49.382;11.358;2023-07-28T01:10:59;95981.03;;;15.51;100.00
68197;BME280;55019;49.382;11.358;2023-07-28T01:13:25;95976.22;;;15.55;100.00
68197;BME280;55019;49.382;11.358;2023-07-28T01:15:51;95974.66;;;15.47;100.00
68197;BME280;55019;49.382;11.358;2023-07-28T01:18:17;95980.72;;;15.35;100.00
68197;BME280;55019;49.382;11.358;2023-07-28T01:20:42;95991.56;;;15.32;100.00
68197;BME280;55019;49.382;11.358;2023-07-28T01:26:08;95986.34;;;15.19;100.00
68197;BME280;55019;49.382;11.358;2023-07-28T01:28:35;95985.16;;;15.21;100.00
68197;BME280;55019;49.382;11.358;2023-07-28T01:31:03;95981.19;;;15.12;100.00
68197;BME280;55019;49.382;11.358;2023-07-28T01:33:29;95987.53;;;15.23;100.00
68197;BME280;55019;49.382;11.358;2023-07-28T01:35:55;95974.38;;;15.11;100.00
68197;BME280;55019;49.382;11.358;2023-07-28T01:38:21;95980.34;;;15.18;100.00
68197;BME280;55019;49.382;11.358;2023-07-28T01:40:46;95975.91;;;15.25;100.00
68197;BME280;55019;49.382;11.358;2023-07-28T01:43:12;95979.94;;;15.15;100.00
68197;BME280;55019;49.382;11.358;2023-07-28T01:45:38;95984.91;;;15.23;100.00
68197;BME280;55019;49.382;11.358;2023-07-28T01:48:04;95979.53;;;15.24;100.00
68197;BME280;55019;49.382;11.358;2023-07-28T01:50:30;95976.69;;;15.26;100.00
68197;BME280;55019;49.382;11.358;2023-07-28T01:52:56;95977.94;;;15.23;100.00
68197;BME280;55019;49.382;11.358;2023-07-28T01:55:22;95984.94;;;15.29;100.00
68197;BME280;55019;49.382;11.358;2023-07-28T01:57:57;95983.13;;;15.23;100.00
68197;BME280;55019;49.382;11.358;2023-07-28T02:00:23;95973.31;;;15.19;100.00
68197;BME280;55019;49.382;11.358;2023-07-28T02:02:49;95974.16;;;15.19;100.00
68197;BME280;55019;49.382;11.358;2023-07-28T02:05:15;95972.72;;;15.23;100.00
68197;BME280;55019;49.382;11.358;2023-07-28T02:07:41;95978.53;;;15.19;100.00
68197;BME280;55019;49.382;11.358;2023-07-28T02:10:08;95974.72;;;15.34;100.00
68197;BME280;55019;49.382;11.358;2023-07-28T02:12:34;95975.31;;;15.30;100.00
68197;BME280;55019;49.382;11.358;2023-07-28T02:14:59;95983.03;;;15.49;100.00
68197;BME280;55019;49.382;11.358;2023-07-28T02:17:25;95985.34;;;15.33;100.00
68197;BME280;55019;49.382;11.358;2023-07-28T02:19:51;95981.94;;;15.32;100.00
68197;BME280;55019;49.382;11.358;2023-07-28T02:22:17;95991.16;;;15.28;100.00
68197;BME280;55019;49.382;11.358;2023-07-28T02:24:42;95990.34;;;15.21;100.00
68197;BME280;55019;49.382;11.358;2023-07-28T02:27:08;95989.53;;;15.27;100.00
68197;BME280;55019;49.382;11.358;2023-07-28T02:29:34;95989.53;;;15.27;100.00
68197;BME280;55019;49.382;11.358;2023-07-28T02:31:59;95991.53;;;15.25;100.00
68197;BME280;55019;49.382;11.358;2023-07-28T02:34:25;95989.53;;;15.27;100.00
68197;BME280;55019;49.382;11.358;2023-07-28T02:36:51;95991.91;;;15.35;100.00
68197;BME280;55019;49.382;11.358;2023-07-28T02:39:17;95993.09;;;15.39;100.00
68197;BME280;55019;49.382;11.358;2023-07-28T02:41:42;95987.06;;;15.45;100.00
68197;BME280;55019;49.382;11.358;2023-07-28T02:44:08;95984.44;;;15.52;100.00
68197;BME280;55019;49.382;11.358;2023-07-28T02:46:34;95977.38;;;15.65;100.00
68197;BME280;55019;49.382;11.358;2023-07-28T02:48:59;95981.75;;;15.71;100.00
68197;BME280;55019;49.382;11.358;2023-07-28T02:51:25;95977.56;;;15.70;100.00
68197;BME280;55019;49.382;11.358;2023-07-28T02:53:51;95974.94;;;15.70;100.00
68197;BME280;55019;49.382;11.358;2023-07-28T02:56:16;95971.06;;;15.86;100.00
68197;BME280;55019;49.382;11.358;2023-07-28T02:58:42;95965.78;;;15.92;100.00
68197;BME280;55019;49.382;11.358;2023-07-28T03:01:08;95969.38;;;15.97;100.00
68197;BME280;55019;49.382;11.358;2023-07-28T03:03:36;95980.75;;;16.03;100.00
68197;BME280;55019;49.382;11.358;2023-07-28T03:06:02;95977.31;;;16.09;100.00
68197;BME280;55019;49.382;11.358;2023-07-28T03:08:28;95982.91;;;16.12;100.00
68197;BME280;55019;49.382;11.358;2023-07-28T03:11:07;95973.56;;;15.98;100.00
68197;BME280;55019;49.382;11.358;2023-07-28T03:13:32;95979.53;;;16.05;100.00
68197;BME280;55019;49.382;11.358;2023-07-28T03:15:58;95987.69;;;16.15;100.00
68197;BME280;55019;49.382;11.358;2023-07-28T03:18:24;95968.06;;;16.13;100.00
68197;BME280;55019;49.382;11.358;2023-07-28T03:20:49;95963.44;;;16.15;100.00
68197;BME280;55019;49.382;11.358;2023-07-28T03:23:15;95973.88;;;16.15;100.00
68197;BME280;55019;49.382;11.358;2023-07-28T03:25:41;95969.50;;;16.09;100.00
68197;BME280;55019;49.382;11.358;2023-07-28T03:28:06;95964.69;;;16.06;100.00
68197;BME280;55019;49.382;11.358;2023-07-28T03:30:32;95982.16;;;16.05;100.00
68197;BME280;55019;49.382;11.358;2023-07-28T03:32:58;95980.31;;;16.06;100.00
68197;BME280;55019;49.382;11.358;2023-07-28T03:35:24;95974.53;;;16.04;100.00
68197;BME280;55019;49.382;11.358;2023-07-28T03:37:59;95969.31;;;16.04;100.00
68197;BME280;55019;49.382;11.358;2023-07-28T03:40:25;95971.47;;;16.13;100.00
68197;BME280;55019;49.382;11.358;2023-07-28T03:42:53;95964.63;;;16.19;100.00
68197;BME280;55019;49.382;11.358;2023-07-28T03:45:18;95977.91;;;16.11;100.00
68197;BME280;55019;49.382;11.358;2023-07-28T03:47:44;95987.91;;;16.14;100.00
68197;BME280;55019;49.382;11.358;2023-07-28T03:50:10;95975.88;;;16.13;100.00
68197;BME280;55019;49.382;11.358;2023-07-28T03:52:35;95974.63;;;16.22;100.00
68197;BME280;55019;49.382;11.358;2023-07-28T03:55:01;95979.59;;;16.23;100.00
68197;BME280;55019;49.382;11.358;2023-07-28T03:57:27;95977.41;;;16.20;100.00
68197;BME280;55019;49.382;11.358;2023-07-28T03:59:53;95975.25;;;16.17;100.00
68197;BME280;55019;49.382;11.358;2023-07-28T04:02:18;95976.25;;;16.16;100.00
68197;BME280;55019;49.382;11.358;2023-07-28T04:04:44;95977.06;;;16.17;100.00
68197;BME280;55019;49.382;11.358;2023-07-28T04:07:10;95975.47;;;16.16;100.00
68197;BME280;55019;49.382;11.358;2023-07-28T04:13:16;95978.00;;;16.22;100.00
68197;BME280;55019;49.382;11.358;2023-07-28T04:15:42;95973.03;;;16.21;100.00
68197;BME280;55019;49.382;11.358;2023-07-28T04:18:08;95966.09;;;16.33;100.00
68197;BME280;55019;49.382;11.358;2023-07-28T04:20:34;95980.63;;;16.22;100.00
68197;BME280;55019;49.382;11.358;2023-07-28T04:23:00;95986.31;;;16.13;100.00
68197;BME280;55019;49.382;11.358;2023-07-28T04:25:26;95983.50;;;15.84;100.00
68197;BME280;55019;49.382;11.358;2023-07-28T04:27:52;96000.19;;;15.70;100.00
68197;BME280;55019;49.382;11.358;2023-07-28T04:30:18;96005.97;;;15.72;100.00
68197;BME280;55019;49.382;11.358;2023-07-28T04:32:43;96008.31;;;15.86;100.00
68197;BME280;55019;49.382;11.358;2023-07-28T04:35:13;95999.66;;;15.92;100.00
68197;BME280;55019;49.382;11.358;2023-07-28T04:37:43;96002.75;;;16.07;100.00
68197;BME280;55019;49.382;11.358;2023-07-28T04:40:12;95981.13;;;16.06;100.00
68197;BME280;55019;49.382;11.358;2023-07-28T04:42:38;95993.97;;;16.08;100.00
68197;BME280;55019;49.382;11.358;2023-07-28T04:45:05;96004.31;;;16.21;100.00
68197;BME280;55019;49.382;11.358;2023-07-28T04:47:32;95996.75;;;16.13;100.00
68197;BME280;55019;49.382;11.358;2023-07-28T04:49:57;95998.00;;;16.28;100.00
68197;BME280;55019;49.382;11.358;2023-07-28T04:52:42;95988.16;;;16.37;100.00
68197;BME280;55019;49.382;11.358;2023-07-28T04:55:14;95995.56;;;16.40;100.00
68197;BME280;55019;49.382;11.358;2023-07-28T04:57:39;95993.81;;;16.34;100.00
68197;BME280;55019;49.382;11.358;2023-07-28T05:00:06;95987.53;;;16.41;100.00
68197;BME280;55019;49.382;11.358;2023-07-28T05:02:31;95985.28;;;16.45;100.00
68197;BME280;55019;49.382;11.358;2023-07-28T05:04:57;95980.50;;;16.42;100.00
68197;BME280;55019;49.382;11.358;2023-07-28T05:07:23;95977.53;;;16.32;100.00
68197;BME280;55019;49.382;11.358;2023-07-28T05:09:49;95983.44;;;16.21;100.00
68197;BME280;55019;49.382;11.358;2023-07-28T05:12:14;95985.53;;;16.06;100.00
68197;BME280;55019;49.382;11.358;2023-07-28T05:14:46;95988.06;;;15.88;100.00
68197;BME280;55019;49.382;11.358;2023-07-28T05:17:16;95985.84;;;15.92;100.00
68197;BME280;55019;49.382;11.358;2023-07-28T05:19:52;96001.94;;;15.82;100.00
68197;BME280;55019;49.382;11.358;2023-07-28T05:22:33;96002.16;;;15.74;100.00
68197;BME280;55019;49.382;11.358;2023-07-28T05:24:59;96001.75;;;15.77;100.00
68197;BME280;55019;49.382;11.358;2023-07-28T05:27:28;96009.81;;;15.69;100.00
68197;BME280;55019;49.382;11.358;2023-07-28T05:29:54;96016.41;;;15.72;100.00
68197;BME280;55019;49.382;11.358;2023-07-28T05:32:19;96022.84;;;15.63;100.00
68197;BME280;55019;49.382;11.358;2023-07-28T05:35:04;96015.44;;;15.66;100.00
68197;BME280;55019;49.382;11.358;2023-07-28T05:37:30;96011.81;;;15.67;100.00
68197;BME280;55019;49.382;11.358;2023-07-28T05:39:55;96016.16;;;15.80;100.00
68197;BME280;55019;49.382;11.358;2023-07-28T05:42:21;96014.59;;;15.72;100.00
68197;BME280;55019;49.382;11.358;2023-07-28T05:44:48;96016.19;;;15.73;100.00
68197;BME280;55019;49.382;11.358;2023-07-28T05:47:14;96017.22;;;15.72;100.00
68197;BME280;55019;49.382;11.358;2023-07-28T05:49:39;96023.25;;;15.66;100.00
68197;BME280;55019;49.382;11.358;2023-07-28T05:52:05;96026.63;;;15.73;100.00
68197;BME280;55019;49.382;11.358;2023-07-28T05:54:31;96031.66;;;15.68;100.00
68197;BME280;55019;49.382;11.358;2023-07-28T05:56:57;96039.41;;;15.75;100.00
68197;BME280;55019;49.382;11.358;2023-07-28T05:59:22;96033.44;;;15.74;100.00
68197;BME280;55019;49.382;11.358;2023-07-28T06:01:48;96037.22;;;15.78;100.00
68197;BME280;55019;49.382;11.358;2023-07-28T06:04:30;96038.31;;;15.95;100.00
68197;BME280;55019;49.382;11.358;2023-07-28T06:06:58;96035.72;;;15.95;100.00
68197;BME280;55019;49.382;11.358;2023-07-28T06:09:24;96029.75;;;15.88;100.00
68197;BME280;55019;49.382;11.358;2023-07-28T06:11:50;96031.94;;;15.91;100.00
68197;BME280;55019;49.382;11.358;2023-07-28T06:14:15;96026.72;;;15.91;100.00
68197;BME280;55019;49.382;11.358;2023-07-28T06:16:41;96026.06;;;16.02;100.00
68197;BME280;55019;49.382;11.358;2023-07-28T06:19:07;96021.53;;;16.22;100.00
68197;BME280;55019;49.382;11.358;2023-07-28T06:21:35;96022.28;;;16.29;100.00
68197;BME280;55019;49.382;11.358;2023-07-28T06:24:01;96019.44;;;16.37;100.00
68197;BME280;55019;49.382;11.358;2023-07-28T06:26:27;96017.84;;;16.36;100.00
68197;BME280;55019;49.382;11.358;2023-07-28T06:28:53;96024.81;;;16.42;100.00
68197;BME280;55019;49.382;11.358;2023-07-28T06:31:18;96032.19;;;16.51;100.00
68197;BME280;55019;49.382;11.358;2023-07-28T06:33:44;96027.31;;;16.55;100.00
68197;BME280;55019;49.382;11.358;2023-07-28T06:36:10;96022.50;;;16.58;100.00
68197;BME280;55019;49.382;11.358;2023-07-28T06:38:36;96026.13;;;16.57;100.00
68197;BME280;55019;49.382;11.358;2023-07-28T06:41:02;96027.72;;;16.58;100.00
68197;BME280;55019;49.382;11.358;2023-07-28T06:43:27;96023.34;;;16.52;100.00
68197;BME280;55019;49.382;11.358;2023-07-28T06:45:54;96032.94;;;16.58;100.00
68197;BME280;55019;49.382;11.358;2023-07-28T06:48:20;96044.69;;;16.67;100.00
68197;BME280;55019;49.382;11.358;2023-07-28T06:50:46;96045.69;;;16.66;100.00
68197;BME280;55019;49.382;11.358;2023-07-28T06:53:11;96042.34;;;16.84;100.00
68197;BME280;55019;49.382;11.358;2023-07-28T06:55:37;96050.59;;;16.81;100.00
68197;BME280;55019;49.382;11.358;2023-07-28T06:58:05;96037.84;;;16.73;100.00
68197;BME280;55019;49.382;11.358;2023-07-28T07:00:31;96039.16;;;16.82;100.00
68197;BME280;55019;49.382;11.358;2023-07-28T07:02:57;96039.94;;;16.82;100.00
68197;BME280;55019;49.382;11.358;2023-07-28T07:05:23;96046.97;;;16.82;100.00
68197;BME280;55019;49.382;11.358;2023-07-28T07:07:49;96046.13;;;16.63;100.00
68197;BME280;55019;49.382;11.358;2023-07-28T07:10:15;96046.50;;;16.67;100.00
68197;BME280;55019;49.382;11.358;2023-07-28T07:12:40;96044.75;;;16.36;100.00
68197;BME280;55019;49.382;11.358;2023-07-28T07:15:07;96075.59;;;16.33;100.00
68197;BME280;55019;49.382;11.358;2023-07-28T07:17:32;96074.41;;;16.29;100.00
68197;BME280;55019;49.382;11.358;2023-07-28T07:19:59;96070.22;;;16.28;100.00
68197;BME280;55019;49.382;11.358;2023-07-28T07:22:24;96086.44;;;16.36;100.00
68197;BME280;55019;49.382;11.358;2023-07-28T07:24:50;96075.25;;;16.23;100.00
68197;BME280;55019;49.382;11.358;2023-07-28T07:27:16;96076.88;;;16.24;100.00
68197;BME280;55019;49.382;11.358;2023-07-28T07:29:41;96071.66;;;16.17;100.00
68197;BME280;55019;49.382;11.358;2023-07-28T07:32:07;96079.72;;;16.16;100.00
68197;BME280;55019;49.382;11.358;2023-07-28T07:34:35;96092.19;;;16.07;100.00
68197;BME280;55019;49.382;11.358;2023-07-28T07:37:02;96094.97;;;16.06;100.00
68197;BME280;55019;49.382;11.358;2023-07-28T07:39:28;96079.34;;;16.06;100.00
68197;BME280;55019;49.382;11.358;2023-07-28T07:41:54;96084.19;;;16.02;100.00
68197;BME280;55019;49.382;11.358;2023-07-28T07:44:20;96090.19;;;16.03;100.00
68197;BME280;55019;49.382;11.358;2023-07-28T07:46:46;96095.72;;;16.19;100.00
68197;BME280;55019;49.382;11.358;2023-07-28T07:49:11;96096.28;;;16.28;100.00
68197;BME280;55019;49.382;11.358;2023-07-28T07:51:37;96099.69;;;16.28;100.00
68197;BME280;55019;49.382;11.358;2023-07-28T07:54:03;96097.13;;;16.22;100.00
68197;BME280;55019;49.382;11.358;2023-07-28T07:56:28;96104.19;;;16.15;100.00
68197;BME280;55019;49.382;11.358;2023-07-28T07:58:54;96111.34;;;16.26;100.00
68197;BME280;55019;49.382;11.358;2023-07-28T08:01:20;96103.94;;;16.23;100.00
68197;BME280;55019;49.382;11.358;2023-07-28T08:03:45;96107.50;;;16.28;100.00
68197;BME280;55019;49.382;11.358;2023-07-28T08:06:11;96103.88;;;16.29;100.00
68197;BME280;55019;49.382;11.358;2023-07-28T08:08:38;96113.72;;;16.27;100.00
68197;BME280;55019;49.382;11.358;2023-07-28T08:11:04;96109.69;;;16.31;100.00
68197;BME280;55019;49.382;11.358;2023-07-28T08:13:30;96110.97;;;16.60;100.00
68197;BME280;55019;49.382;11.358;2023-07-28T08:15:55;96110.94;;;16.91;100.00
68197;BME280;55019;49.382;11.358;2023-07-28T08:18:21;96112.09;;;16.95;100.00
68197;BME280;55019;49.382;11.358;2023-07-28T08:20:48;96104.81;;;17.03;100.00
68197;BME280;55019;49.382;11.358;2023-07-28T08:23:14;96106.72;;;17.14;100.00
68197;BME280;55019;49.382;11.358;2023-07-28T08:25:39;96111.78;;;17.09;100.00
68197;BME280;55019;49.382;11.358;2023-07-28T08:28:05;96106.03;;;17.01;100.00
68197;BME280;55019;49.382;11.358;2023-07-28T08:30:31;96114.13;;;16.93;100.00
68197;BME280;55019;49.382;11.358;2023-07-28T08:32:57;96108.59;;;16.83;100.00
68197;BME280;55019;49.382;11.358;2023-07-28T08:35:23;96123.09;;;16.72;100.00
68197;BME280;55019;49.382;11.358;2023-07-28T08:37:49;96124.69;;;16.73;100.00
68197;BME280;55019;49.382;11.358;2023-07-28T08:40:14;96115.88;;;16.74;100.00
68197;BME280;55019;49.382;11.358;2023-07-28T08:42:40;96119.88;;;16.77;100.00
68197;BME280;55019;49.382;11.358;2023-07-28T08:45:07;96120.66;;;16.77;100.00
68197;BME280;55019;49.382;11.358;2023-07-28T08:47:36;96121.38;;;16.91;100.00
68197;BME280;55019;49.382;11.358;2023-07-28T08:50:03;96114.56;;;17.32;100.00
68197;BME280;55019;49.382;11.358;2023-07-28T08:52:29;96104.56;;;17.89;100.00
68197;BME280;55019;49.382;11.358;2023-07-28T08:54:55;96102.19;;;18.35;100.00
68197;BME280;55019;49.382;11.358;2023-07-28T08:57:21;96102.44;;;18.45;100.00
68197;BME280;55019;49.382;11.358;2023-07-28T08:59:46;96090.38;;;18.44;100.00
68197;BME280;55019;49.382;11.358;2023-07-28T09:02:19;96088.81;;;18.95;100.00
68197;BME280;55019;49.382;11.358;2023-07-28T09:04:47;96091.94;;;19.27;100.00
68197;BME280;55019;49.382;11.358;2023-07-28T09:07:13;96085.75;;;19.56;100.00
68197;BME280;55019;49.382;11.358;2023-07-28T09:09:39;96087.03;;;19.93;100.00
68197;BME280;55019;49.382;11.358;2023-07-28T09:12:09;96089.66;;;19.93;100.00
68197;BME280;55019;49.382;11.358;2023-07-28T09:14:36;96101.44;;;19.79;100.00
68197;BME280;55019;49.382;11.358;2023-07-28T09:17:12;96088.59;;;19.43;100.00
68197;BME280;55019;49.382;11.358;2023-07-28T09:19:52;96095.97;;;19.00;100.00
68197;BME280;55019;49.382;11.358;2023-07-28T09:22:18;96096.97;;;18.76;100.00
68197;BME280;55019;49.382;11.358;2023-07-28T09:24:46;96094.56;;;18.63;100.00
68197;BME280;55019;49.382;11.358;2023-07-28T09:27:20;96098.22;;;18.85;100.00
68197;BME280;55019;49.382;11.358;2023-07-28T09:29:51;96100.50;;;18.93;100.00
68197;BME280;55019;49.382;11.358;2023-07-28T09:32:27;96104.22;;;19.15;100.00
68197;BME280;55019;49.382;11.358;2023-07-28T09:35:13;96100.91;;;19.31;100.00
68197;BME280;55019;49.382;11.358;2023-07-28T09:37:46;96093.84;;;19.31;100.00
68197;BME280;55019;49.382;11.358;2023-07-28T09:40:22;96109.16;;;19.05;100.00
68197;BME280;55019;49.382;11.358;2023-07-28T09:42:49;96095.34;;;19.16;100.00
68197;BME280;55019;49.382;11.358;2023-07-28T09:45:15;96099.28;;;19.07;100.00
68197;BME280;55019;49.382;11.358;2023-07-28T09:47:42;96094.34;;;18.76;100.00
68197;BME280;55019;49.382;11.358;2023-07-28T09:50:10;96102.31;;;18.81;100.00
68197;BME280;55019;49.382;11.358;2023-07-28T09:52:39;96101.44;;;19.10;100.00
68197;BME280;55019;49.382;11.358;2023-07-28T09:55:09;96101.59;;;19.38;100.00
68197;BME280;55019;49.382;11.358;2023-07-28T09:57:41;96091.88;;;19.73;100.00
68197;BME280;55019;49.382;11.358;2023-07-28T10:00:11;96100.78;;;19.60;100.00
68197;BME280;55019;49.382;11.358;2023-07-28T10:02:38;96090.69;;;19.18;100.00
68197;BME280;55019;49.382;11.358;2023-07-28T10:05:07;96103.03;;;19.11;100.00
68197;BME280;55019;49.382;11.358;2023-07-28T10:07:40;96096.09;;;18.93;100.00
68197;BME280;55019;49.382;11.358;2023-07-28T10:10:07;96101.44;;;19.10;100.00
68197;BME280;55019;49.382;11.358;2023-07-28T10:12:53;96104.50;;;18.95;100.00
68197;BME280;55019;49.382;11.358;2023-07-28T10:15:21;96103.50;;;18.96;100.00
68197;BME280;55019;49.382;11.358;2023-07-28T10:17:57;96106.19;;;18.90;100.00
68197;BME280;55019;49.382;11.358;2023-07-28T10:20:37;96103.91;;;18.82;100.00
68197;BME280;55019;49.382;11.358;2023-07-28T10:23:06;96103.91;;;18.82;100.00
68197;BME280;55019;49.382;11.358;2023-07-28T10:25:36;96113.59;;;18.93;100.00
68197;BME280;55019;49.382;11.358;2023-07-28T10:28:05;96116.53;;;19.26;100.00
68197;BME280;55019;49.382;11.358;2023-07-28T10:30:38;96118.44;;;19.42;100.00
68197;BME280;55019;49.382;11.358;2023-07-28T10:33:06;96115.38;;;19.68;100.00
68197;BME280;55019;49.382;11.358;2023-07-28T10:35:31;96117.84;;;19.63;100.00
68197;BME280;55019;49.382;11.358;2023-07-28T10:38:29;96128.47;;;19.22;100.00
68197;BME280;55019;49.382;11.358;2023-07-28T10:41:15;96121.09;;;19.19;100.00
68197;BME280;55019;49.382;11.358;2023-07-28T10:43:42;96118.56;;;19.47;100.00
68197;BME280;55019;49.382;11.358;2023-07-28T10:46:09;96123.59;;;19.48;100.00
68197;BME280;55019;49.382;11.358;2023-07-28T10:48:37;96125.56;;;20.04;100.00
68197;BME280;55019;49.382;11.358;2023-07-28T10:51:03;96123.91;;;20.53;100.00
68197;BME280;55019;49.382;11.358;2023-07-28T10:53:31;96131.91;;;21.03;100.00
68197;BME280;55019;49.382;11.358;2023-07-28T10:55:58;96133.03;;;21.23;100.00
68197;BME280;55019;49.382;11.358;2023-07-28T10:58:24;96123.69;;;21.65;100.00
68197;BME280;55019;49.382;11.358;2023-07-28T11:00:50;96124.34;;;21.06;100.00
68197;BME280;55019;49.382;11.358;2023-07-28T11:03:17;96123.34;;;20.51;100.00
68197;BME280;55019;49.382;11.358;2023-07-28T11:05:43;96124.41;;;20.00;100.00
68197;BME280;55019;49.382;11.358;2023-07-28T11:08:10;96131.41;;;19.83;100.00
68197;BME280;55019;49.382;11.358;2023-07-28T11:10:36;96135.63;;;19.84;100.00
68197;BME280;55019;49.382;11.358;2023-07-28T11:13:02;96134.91;;;19.88;100.00
68197;BME280;55019;49.382;11.358;2023-07-28T11:15:28;96137.03;;;19.40;100.00
68197;BME280;55019;49.382;11.358;2023-07-28T11:17:55;96142.94;;;19.36;100.00
68197;BME280;55019;49.382;11.358;2023-07-28T11:20:26;96141.25;;;18.89;100.00
68197;BME280;55019;49.382;11.358;2023-07-28T11:23:00;96153.13;;;19.03;100.00
68197;BME280;55019;49.382;11.358;2023-07-28T11:25:27;96147.03;;;19.32;100.00
68197;BME280;55019;49.382;11.358;2023-07-28T11:27:53;96141.66;;;19.84;100.00
68197;BME280;55019;49.382;11.358;2023-07-28T11:30:22;96151.53;;;20.56;100.00
68197;BME280;55019;49.382;11.358;2023-07-28T11:32:51;96145.84;;;21.53;100.00
68197;BME280;55019;49.382;11.358;2023-07-28T11:35:19;96139.53;;;21.54;100.00
68197;BME280;55019;49.382;11.358;2023-07-28T11:37:46;96137.97;;;21.69;100.00
68197;BME280;55019;49.382;11.358;2023-07-28T11:40:14;96129.66;;;21.77;100.00
68197;BME280;55019;49.382;11.358;2023-07-28T11:42:44;96128.63;;;21.99;100.00
68197;BME280;55019;49.382;11.358;2023-07-28T11:45:10;96141.50;;;21.80;100.00
68197;BME280;55019;49.382;11.358;2023-07-28T11:47:37;96129.66;;;21.11;100.00
68197;BME280;55019;49.382;11.358;2023-07-28T11:50:04;96140.00;;;20.57;100.00
68197;BME280;55019;49.382;11.358;2023-07-28T11:52:31;96133.31;;;20.22;100.00
68197;BME280;55019;49.382;11.358;2023-07-28T11:55:01;96134.72;;;20.68;100.00
68197;BME280;55019;49.382;11.358;2023-07-28T11:57:29;96136.66;;;21.55;100.00
68197;BME280;55019;49.382;11.358;2023-07-28T12:00:04;96136.44;;;22.59;100.00
68197;BME280;55019;49.382;11.358;2023-07-28T12:02:31;96131.88;;;23.70;100.00
68197;BME280;55019;49.382;11.358;2023-07-28T12:04:59;96129.09;;;23.86;100.00
68197;BME280;55019;49.382;11.358;2023-07-28T12:07:31;96136.22;;;23.86;100.00
68197;BME280;55019;49.382;11.358;2023-07-28T12:10:03;96142.56;;;23.53;100.00
68197;BME280;55019;49.382;11.358;2023-07-28T12:12:39;96139.91;;;22.86;100.00
68197;BME280;55019;49.382;11.358;2023-07-28T12:15:41;96140.66;;;22.17;100.00
68197;BME280;55019;49.382;11.358;2023-07-28T12:18:14;96146.13;;;22.10;100.00
68197;BME280;55019;49.382;11.358;2023-07-28T12:20:47;96153.53;;;22.13;100.00
68197;BME280;55019;49.382;11.358;2023-07-28T12:23:14;96143.44;;;22.27;100.00
68197;BME280;55019;49.382;11.358;2023-07-28T12:25:41;96144.44;;;22.42;100.00
68197;BME280;55019;49.382;11.358;2023-07-28T12:28:07;96143.31;;;21.96;100.00
68197;BME280;55019;49.382;11.358;2023-07-28T12:30:33;96150.91;;;22.13;100.00
68197;BME280;55019;49.382;11.358;2023-07-28T12:32:59;96156.56;;;22.70;100.00
68197;BME280;55019;49.382;11.358;2023-07-28T12:35:26;96147.59;;;23.50;100.00
68197;BME280;55019;49.382;11.358;2023-07-28T12:37:57;96146.75;;;23.45;100.00
68197;BME280;55019;49.382;11.358;2023-07-28T12:40:26;96150.47;;;23.48;100.00
68197;BME280;55019;49.382;11.358;2023-07-28T12:42:52;96142.66;;;23.27;99.65
68197;BME280;55019;49.382;11.358;2023-07-28T12:45:17;96151.22;;;23.13;100.00
68197;BME280;55019;49.382;11.358;2023-07-28T12:47:43;96148.97;;;23.00;100.00
68197;BME280;55019;49.382;11.358;2023-07-28T12:50:09;96149.63;;;22.85;100.00